To NAV CANADA Home Page Login to a new session Search on AWWS site Feedback and Comments Disclaimer Vers la page française équivalente Tips FAQ What's new on the site To the Forecasts and Observations / NOTAM section To "File a Flight Plan" website Publications and other links Update of the User's profile FIC Telephone Numbers My Weather Data Folder Route Weather Data Regional Weather Data Local Weather Data To the Forecasts and Observations / NOTAM section
Request Generated 08/22/2017 at 01:37:17 UTC . Weather information available at that time is displayed.

METAR/TAF

HAVRE ST-PIERRE/QC    (show WxCam)

METAR CYGV 220100Z AUTO 27006KT 1/4SM FG VV001 14/14 A2976 RMK
SLP079=
METAR CYGV 220000Z AUTO 24006KT 3/8SM FG VV002 14/14 A2977 RMK
SLP084=
SPECI CYGV 212344Z AUTO 25008KT 3/4SM BR OVC002 14/14 A2977 RMK
SLP084=
SPECI CYGV 212341Z AUTO 25009KT 1 1/4SM BR OVC002 14/14 A2977 RMK
SLP084=
SPECI CYGV 212338Z AUTO 25006KT 1 3/4SM BR OVC004 14/14 A2977 RMK
SLP083=
SPECI CYGV 212329Z AUTO 22006KT 190V250 2 1/2SM BR BKN004 OVC110
14/14 A2977 RMK SLP082=
SPECI CYGV 212319Z AUTO 23006KT 3SM BR BKN004 OVC110 14/14 A2977 RMK
SLP083=
SPECI CYGV 212312Z AUTO 24006KT 3SM -RA BR BKN006 BKN055 OVC110 14/14
A2977 RMK SLP082=
METAR CYGV 212300Z AUTO 23006KT 3SM -RA BR FEW008 SCT055 BKN069
OVC110 14/14 A2976 RMK SLP079=

TAF AMD CYGV 212346Z 2123/2208 24005KT 3/4SM BR BKN002 TEMPO
2123/2202 3SM -SHRA BR SCT002 BKN050
FM220200 24010KT 6SM BR SCT005 BKN100 TEMPO 2202/2206 3SM BR
BKN005
FM220600 27010KT P6SM SCT020 TEMPO 2206/2208 5SM BR BKN020
RMK FCST BASED ON AUTO OBS. NXT FCST BY 220200Z=
Your time UTC time
Weather data provided by Environment Canada and NAV CANADA